createdAt,value
2017-09-26T00:00:44.165Z,0.00
2017-09-26T00:01:44.599Z,0.00
2017-09-26T00:02:45.031Z,0.00
2017-09-26T00:03:45.472Z,0.00
2017-09-26T00:04:45.891Z,0.00
2017-09-26T00:05:46.324Z,0.00
2017-09-26T00:06:46.758Z,0.00
2017-09-26T00:07:47.189Z,0.00
2017-09-26T00:08:47.616Z,0.00
2017-09-26T00:09:48.054Z,0.00
2017-09-26T00:10:48.481Z,0.00
2017-09-26T00:11:48.914Z,0.00
2017-09-26T00:12:49.347Z,0.00
2017-09-26T00:13:49.776Z,0.00
2017-09-26T00:14:50.208Z,0.00
2017-09-26T00:15:50.638Z,0.00
2017-09-26T00:16:51.068Z,0.00
2017-09-26T00:17:51.514Z,0.00
2017-09-26T00:18:51.932Z,0.00
2017-09-26T00:19:52.368Z,0.00
2017-09-26T00:20:52.800Z,0.00
2017-09-26T00:21:53.228Z,0.00
2017-09-26T00:22:53.659Z,0.00
2017-09-26T00:23:54.089Z,0.00
2017-09-26T00:24:54.529Z,0.00
2017-09-26T00:25:54.949Z,0.00
2017-09-26T00:26:55.377Z,0.00
2017-09-26T00:27:55.816Z,0.00
2017-09-26T00:28:56.244Z,0.00
2017-09-26T00:29:56.677Z,0.00
2017-09-26T00:30:57.106Z,0.00
2017-09-26T00:31:57.541Z,0.00
2017-09-26T00:32:57.966Z,0.00
2017-09-26T00:33:58.409Z,0.00
2017-09-26T00:34:58.828Z,0.00
2017-09-26T00:35:59.281Z,0.00
2017-09-26T00:36:59.703Z,0.00
2017-09-26T00:38:00.123Z,0.00
2017-09-26T00:39:00.554Z,0.00
2017-09-26T00:40:00.992Z,0.00
2017-09-26T00:41:01.421Z,0.00
2017-09-26T00:42:01.859Z,0.00
2017-09-26T00:43:02.282Z,0.00
2017-09-26T00:44:02.715Z,0.00
2017-09-26T00:45:03.144Z,0.00
2017-09-26T00:46:03.571Z,0.00
2017-09-26T00:47:04.007Z,0.00
2017-09-26T00:48:04.441Z,0.00
2017-09-26T00:49:04.914Z,0.00
2017-09-26T00:50:05.305Z,0.00
2017-09-26T00:51:05.730Z,0.00
2017-09-26T00:52:06.164Z,0.00
2017-09-26T00:53:06.599Z,0.00
2017-09-26T00:54:07.028Z,0.00
2017-09-26T00:55:07.460Z,0.00
2017-09-26T00:56:07.887Z,0.00
2017-09-26T00:57:08.317Z,0.00
2017-09-26T00:58:08.751Z,0.00
2017-09-26T00:59:09.182Z,0.00
2017-09-26T01:00:09.612Z,0.00
2017-09-26T01:01:10.042Z,0.00
2017-09-26T01:02:10.476Z,0.00
2017-09-26T01:03:10.905Z,0.00
2017-09-26T01:04:11.334Z,0.00
2017-09-26T01:05:11.775Z,0.00
2017-09-26T01:06:12.198Z,0.00
2017-09-26T01:07:12.625Z,0.00
2017-09-26T01:08:13.059Z,0.00
2017-09-26T01:09:13.492Z,0.00
2017-09-26T01:10:13.921Z,0.00
2017-09-26T01:11:14.357Z,0.00
2017-09-26T01:12:14.785Z,0.00
2017-09-26T01:13:15.220Z,0.00
2017-09-26T01:14:15.649Z,0.00
2017-09-26T01:15:16.083Z,0.00
2017-09-26T01:16:16.511Z,0.00
2017-09-26T01:17:16.942Z,0.00
2017-09-26T01:18:17.376Z,0.00
2017-09-26T01:19:17.803Z,0.00
2017-09-26T01:20:18.232Z,0.00
2017-09-26T01:21:18.664Z,0.00
2017-09-26T01:22:19.099Z,0.00
2017-09-26T01:23:19.527Z,0.00
2017-09-26T01:24:19.958Z,0.00
2017-09-26T01:25:20.393Z,0.00
2017-09-26T01:26:20.822Z,0.00
2017-09-26T01:27:21.254Z,0.00
2017-09-26T01:28:21.683Z,0.00
2017-09-26T01:29:22.115Z,0.00
2017-09-26T01:30:22.559Z,0.00
2017-09-26T01:31:22.977Z,0.00
2017-09-26T01:32:23.406Z,0.00
2017-09-26T01:33:23.841Z,0.00
2017-09-26T01:34:24.281Z,0.00
2017-09-26T01:35:24.705Z,0.00
2017-09-26T01:36:25.132Z,0.00
2017-09-26T01:37:25.576Z,0.00
2017-09-26T01:38:25.995Z,0.00
2017-09-26T01:39:26.426Z,0.00
2017-09-26T01:40:26.854Z,0.00
2017-09-26T01:41:27.295Z,0.00
2017-09-26T01:42:27.719Z,0.00
2017-09-26T01:43:28.149Z,0.00
2017-09-26T01:44:28.581Z,0.00
2017-09-26T01:45:29.007Z,0.00
2017-09-26T01:46:29.449Z,0.00
2017-09-26T01:47:29.869Z,0.00
2017-09-26T01:48:30.302Z,0.00
2017-09-26T01:49:30.732Z,0.00
2017-09-26T01:50:31.168Z,0.00
2017-09-26T01:51:31.598Z,0.00
2017-09-26T01:52:32.037Z,0.00
2017-09-26T01:53:32.456Z,0.00
2017-09-26T01:54:32.902Z,0.00
2017-09-26T01:55:33.320Z,0.00
2017-09-26T01:56:33.749Z,0.00
2017-09-26T01:57:34.181Z,0.00
2017-09-26T01:58:34.614Z,0.00
2017-09-26T01:59:35.041Z,0.00
2017-09-26T02:00:35.472Z,0.00
2017-09-26T02:01:35.903Z,0.00
2017-09-26T02:02:36.339Z,0.00
2017-09-26T02:03:36.765Z,0.00
2017-09-26T02:04:37.198Z,0.00
2017-09-26T02:05:37.647Z,0.00
2017-09-26T02:06:38.067Z,0.00
2017-09-26T02:07:38.489Z,0.00
2017-09-26T02:08:38.929Z,0.00
2017-09-26T02:09:39.356Z,0.00
2017-09-26T02:10:39.783Z,0.00
2017-09-26T02:11:40.216Z,0.00
2017-09-26T02:12:40.646Z,0.00
2017-09-26T02:13:41.081Z,0.00
2017-09-26T02:14:41.524Z,0.00
2017-09-26T02:15:41.946Z,0.00
2017-09-26T02:16:42.369Z,0.00
2017-09-26T02:17:42.802Z,0.00
2017-09-26T02:18:43.235Z,0.00
2017-09-26T02:19:43.665Z,0.00
2017-09-26T02:20:44.103Z,0.00
2017-09-26T02:21:44.530Z,0.00
2017-09-26T02:22:44.955Z,0.00
2017-09-26T02:23:45.385Z,0.00
2017-09-26T02:24:45.821Z,0.00
2017-09-26T02:25:46.250Z,0.00
2017-09-26T02:26:46.681Z,0.00
2017-09-26T02:27:47.116Z,0.00
2017-09-26T02:28:47.544Z,0.00
2017-09-26T02:29:47.976Z,0.00
2017-09-26T02:30:48.406Z,0.00
2017-09-26T02:31:48.847Z,0.00
2017-09-26T02:32:49.271Z,0.00
2017-09-26T02:33:49.698Z,0.00
2017-09-26T02:34:50.136Z,0.00
2017-09-26T02:35:50.564Z,0.00
2017-09-26T02:36:50.989Z,0.00
2017-09-26T02:37:51.424Z,0.00
2017-09-26T02:38:51.863Z,0.00
2017-09-26T02:39:52.286Z,0.00
2017-09-26T02:40:52.715Z,0.00
2017-09-26T02:41:53.149Z,0.00
2017-09-26T02:42:53.580Z,0.00
2017-09-26T02:43:54.016Z,0.00
2017-09-26T02:44:54.437Z,0.00
2017-09-26T02:45:54.879Z,0.00
2017-09-26T02:46:55.304Z,0.00
2017-09-26T02:47:55.737Z,0.00
2017-09-26T02:48:56.170Z,0.00
2017-09-26T02:49:56.603Z,0.00
2017-09-26T02:50:57.033Z,0.00
2017-09-26T02:51:57.458Z,0.00
2017-09-26T02:52:57.904Z,0.00
2017-09-26T02:53:58.323Z,0.00
2017-09-26T02:54:58.758Z,0.00
2017-09-26T02:55:59.187Z,0.00
2017-09-26T02:56:59.612Z,0.00
2017-09-26T02:58:00.048Z,0.00
2017-09-26T02:59:00.477Z,0.00
2017-09-26T03:00:00.917Z,0.00
2017-09-26T03:01:01.337Z,0.00
2017-09-26T03:02:01.765Z,0.00
2017-09-26T03:03:02.203Z,0.00
2017-09-26T03:04:02.628Z,0.00
2017-09-26T03:05:03.061Z,0.00
2017-09-26T03:06:03.503Z,0.00
2017-09-26T03:07:03.937Z,0.00
2017-09-26T03:08:04.353Z,0.00
2017-09-26T03:09:04.795Z,0.00
2017-09-26T03:10:05.221Z,0.00
2017-09-26T03:11:05.648Z,0.00
2017-09-26T03:12:06.078Z,0.00
2017-09-26T03:13:06.509Z,0.00
2017-09-26T03:14:06.940Z,0.00
2017-09-26T03:15:07.373Z,0.00
2017-09-26T03:16:07.802Z,0.00
2017-09-26T03:17:08.236Z,0.00
2017-09-26T03:18:08.662Z,0.00
2017-09-26T03:19:09.097Z,0.00
2017-09-26T03:20:09.523Z,0.00
2017-09-26T03:21:09.955Z,0.00
2017-09-26T03:22:10.386Z,0.00
2017-09-26T03:23:10.819Z,0.00
2017-09-26T03:24:11.247Z,0.00
2017-09-26T03:25:11.693Z,0.00
2017-09-26T03:26:12.113Z,0.00
2017-09-26T03:27:12.543Z,0.00
2017-09-26T03:28:12.977Z,0.00
2017-09-26T03:29:13.406Z,0.00
2017-09-26T03:30:13.841Z,0.00
2017-09-26T03:31:14.265Z,0.00
2017-09-26T03:32:14.695Z,0.00
2017-09-26T03:33:15.133Z,0.00
2017-09-26T03:34:15.559Z,0.00
2017-09-26T03:35:15.995Z,0.00
2017-09-26T03:36:16.455Z,0.00
2017-09-26T03:37:16.858Z,0.00
2017-09-26T03:38:17.288Z,0.00
2017-09-26T03:39:17.718Z,0.00
2017-09-26T03:40:18.160Z,0.00
2017-09-26T03:41:18.579Z,0.00
2017-09-26T03:42:19.021Z,0.00
2017-09-26T03:43:19.443Z,0.00
2017-09-26T03:44:19.873Z,0.00
2017-09-26T03:45:20.302Z,0.00
2017-09-26T03:46:20.734Z,0.00
2017-09-26T03:47:21.163Z,0.00
2017-09-26T03:48:21.595Z,0.00
2017-09-26T03:49:22.024Z,0.00
2017-09-26T03:50:22.459Z,0.00
2017-09-26T03:51:22.952Z,0.00
2017-09-26T03:52:23.327Z,0.00
2017-09-26T03:53:23.752Z,0.00
2017-09-26T03:54:24.184Z,0.00
2017-09-26T03:55:24.618Z,0.00
2017-09-26T03:56:25.043Z,0.00
2017-09-26T03:57:25.479Z,0.00
2017-09-26T03:58:25.907Z,0.00
2017-09-26T03:59:26.341Z,0.00
2017-09-26T04:00:26.765Z,0.00
2017-09-26T04:01:27.209Z,0.00
2017-09-26T04:02:27.633Z,0.00
2017-09-26T04:03:28.061Z,0.00
2017-09-26T04:04:28.501Z,0.00
2017-09-26T04:05:28.924Z,0.00
2017-09-26T04:06:29.355Z,0.00
2017-09-26T04:07:29.784Z,0.00
2017-09-26T04:08:30.215Z,0.00
2017-09-26T04:09:30.655Z,0.00
2017-09-26T04:10:31.081Z,0.00
2017-09-26T04:11:31.519Z,0.00
2017-09-26T04:12:31.944Z,0.00
2017-09-26T04:13:32.376Z,0.00
2017-09-26T04:14:32.800Z,0.00
2017-09-26T04:15:33.233Z,0.00
2017-09-26T04:16:33.665Z,0.00
2017-09-26T04:17:34.098Z,0.00
2017-09-26T04:18:34.529Z,0.00
2017-09-26T04:19:34.959Z,0.00
2017-09-26T04:20:35.395Z,0.00
2017-09-26T04:21:35.818Z,0.00
2017-09-26T04:22:36.249Z,0.00
2017-09-26T04:23:36.682Z,0.00
2017-09-26T04:24:37.122Z,0.00
2017-09-26T04:25:37.545Z,0.00
2017-09-26T04:26:37.979Z,0.00
2017-09-26T04:27:38.403Z,0.00
2017-09-26T04:28:38.840Z,0.00
2017-09-26T04:29:39.267Z,0.00
2017-09-26T04:30:39.699Z,0.00
2017-09-26T04:31:40.131Z,0.00
2017-09-26T04:32:40.565Z,0.00
2017-09-26T04:33:40.989Z,0.00
2017-09-26T04:34:41.428Z,0.00
2017-09-26T04:35:41.854Z,0.00
2017-09-26T04:36:42.291Z,0.00
2017-09-26T04:37:42.726Z,0.00
2017-09-26T04:38:43.148Z,0.00
2017-09-26T04:39:43.579Z,0.00
2017-09-26T04:40:44.019Z,0.00
2017-09-26T04:41:44.446Z,0.00
2017-09-26T04:42:44.873Z,0.00
2017-09-26T04:43:45.305Z,0.00
2017-09-26T04:44:45.731Z,0.00
2017-09-26T04:45:46.167Z,0.00
2017-09-26T04:46:46.601Z,0.00
2017-09-26T04:47:47.027Z,0.00
2017-09-26T04:48:47.463Z,0.00
2017-09-26T04:49:47.894Z,0.00
2017-09-26T04:50:48.321Z,0.00
2017-09-26T04:51:48.751Z,0.00
2017-09-26T04:52:49.183Z,0.00
2017-09-26T04:53:49.620Z,0.00
2017-09-26T04:54:50.048Z,0.00
2017-09-26T04:55:50.482Z,0.00
2017-09-26T04:56:50.911Z,0.00
2017-09-26T04:57:51.343Z,0.00
2017-09-26T04:58:51.770Z,0.00
2017-09-26T04:59:52.201Z,0.00
2017-09-26T05:00:52.634Z,5.63
2017-09-26T05:01:53.062Z,5.63
2017-09-26T05:02:53.496Z,5.63
2017-09-26T05:03:53.928Z,5.63
2017-09-26T05:04:54.357Z,5.63
2017-09-26T05:05:54.793Z,5.63
2017-09-26T05:06:55.218Z,5.63
2017-09-26T05:07:55.653Z,5.63
2017-09-26T05:08:56.080Z,5.63
2017-09-26T05:09:56.517Z,11.25
2017-09-26T05:10:56.945Z,11.25
2017-09-26T05:11:57.380Z,11.25
2017-09-26T05:12:57.809Z,11.25
2017-09-26T05:13:58.270Z,11.25
2017-09-26T05:14:58.673Z,11.25
2017-09-26T05:15:59.132Z,11.25
2017-09-26T05:16:59.534Z,11.25
2017-09-26T05:18:00.048Z,11.25
2017-09-26T05:19:00.400Z,11.25
2017-09-26T05:20:00.835Z,11.25
2017-09-26T05:21:01.279Z,11.25
2017-09-26T05:22:01.690Z,11.25
2017-09-26T05:23:02.126Z,11.25
2017-09-26T05:24:02.554Z,16.88
2017-09-26T05:25:02.981Z,16.88
2017-09-26T05:26:03.412Z,22.50
2017-09-26T05:27:03.843Z,22.50
2017-09-26T05:28:04.281Z,22.50
2017-09-26T05:29:04.705Z,22.50
2017-09-26T05:30:05.139Z,22.50
2017-09-26T05:31:05.567Z,22.50
2017-09-26T05:32:05.998Z,16.88
2017-09-26T05:33:06.430Z,22.50
2017-09-26T05:34:07.022Z,22.50
2017-09-26T05:35:07.286Z,28.13
2017-09-26T05:36:07.724Z,28.13
2017-09-26T05:37:08.157Z,33.75
2017-09-26T05:38:08.584Z,28.13
2017-09-26T05:39:09.030Z,33.75
2017-09-26T05:40:09.448Z,33.75
2017-09-26T05:41:09.878Z,33.75
2017-09-26T05:42:10.316Z,39.38
2017-09-26T05:43:10.752Z,33.75
2017-09-26T05:44:11.175Z,33.75
2017-09-26T05:45:11.604Z,33.75
2017-09-26T05:46:12.043Z,33.75
2017-09-26T05:47:12.467Z,33.75
2017-09-26T05:48:12.903Z,33.75
2017-09-26T05:49:13.331Z,33.75
2017-09-26T05:50:13.760Z,33.75
2017-09-26T05:51:14.192Z,39.38
2017-09-26T05:52:14.627Z,45.00
2017-09-26T05:53:15.050Z,39.38
2017-09-26T05:54:15.485Z,39.38
2017-09-26T05:55:15.917Z,39.38
2017-09-26T05:56:16.349Z,39.38
2017-09-26T05:57:16.777Z,39.38
2017-09-26T05:58:17.210Z,33.75
2017-09-26T05:59:17.639Z,33.75
2017-09-26T06:00:18.073Z,33.75
2017-09-26T06:01:18.503Z,33.75
2017-09-26T06:02:18.934Z,33.75
2017-09-26T06:03:19.366Z,33.75
2017-09-26T06:04:19.807Z,33.75
2017-09-26T06:05:20.230Z,33.75
2017-09-26T06:06:20.669Z,33.75
2017-09-26T06:07:21.096Z,33.75
2017-09-26T06:08:21.527Z,39.38
2017-09-26T06:09:21.954Z,39.38
2017-09-26T06:10:22.428Z,39.38
2017-09-26T06:11:22.820Z,39.38
2017-09-26T06:12:23.249Z,45.00
2017-09-26T06:13:23.679Z,45.00
2017-09-26T06:14:24.112Z,45.00
2017-09-26T06:15:24.546Z,56.25
2017-09-26T06:16:24.978Z,56.25
2017-09-26T06:17:25.406Z,56.25
2017-09-26T06:18:25.837Z,56.25
2017-09-26T06:19:26.270Z,61.88
2017-09-26T06:20:26.704Z,61.88
2017-09-26T06:21:27.134Z,56.25
2017-09-26T06:22:27.564Z,61.88
2017-09-26T06:23:27.999Z,56.25
2017-09-26T06:24:28.429Z,56.25
2017-09-26T06:25:28.861Z,56.25
2017-09-26T06:26:29.292Z,61.88
2017-09-26T06:27:29.735Z,61.88
2017-09-26T06:28:30.159Z,61.88
2017-09-26T06:29:30.595Z,61.88
2017-09-26T06:30:31.020Z,67.50
2017-09-26T06:31:31.453Z,67.50
2017-09-26T06:32:31.888Z,67.50
2017-09-26T06:33:32.323Z,67.50
2017-09-26T06:34:32.747Z,67.50
2017-09-26T06:35:33.179Z,67.50
2017-09-26T06:36:33.613Z,78.75
2017-09-26T06:37:34.043Z,78.75
2017-09-26T06:38:34.475Z,73.13
2017-09-26T06:39:34.912Z,78.75
2017-09-26T06:40:35.344Z,84.38
2017-09-26T06:41:35.775Z,90.00
2017-09-26T06:42:36.210Z,84.38
2017-09-26T06:43:36.673Z,101.25
2017-09-26T06:44:37.075Z,90.00
2017-09-26T06:45:37.501Z,90.00
2017-09-26T06:46:37.941Z,84.38
2017-09-26T06:47:38.371Z,78.75
2017-09-26T06:48:38.821Z,84.38
2017-09-26T06:49:39.232Z,78.75
2017-09-26T06:50:39.667Z,78.75
2017-09-26T06:51:40.096Z,84.38
2017-09-26T06:52:40.567Z,95.63
2017-09-26T06:53:40.960Z,95.63
2017-09-26T06:54:41.392Z,118.13
2017-09-26T06:55:41.828Z,118.13
2017-09-26T06:56:42.263Z,106.88
2017-09-26T06:57:42.690Z,106.88
2017-09-26T06:58:43.120Z,112.50
2017-09-26T06:59:43.560Z,106.88
2017-09-26T07:00:43.988Z,106.88
2017-09-26T07:01:44.418Z,95.63
2017-09-26T07:02:44.850Z,95.63
2017-09-26T07:03:45.284Z,101.25
2017-09-26T07:04:45.753Z,101.25
2017-09-26T07:05:46.156Z,101.25
2017-09-26T07:06:46.581Z,106.88
2017-09-26T07:07:47.018Z,123.75
2017-09-26T07:08:47.448Z,112.50
2017-09-26T07:09:47.878Z,123.75
2017-09-26T07:10:48.336Z,140.63
2017-09-26T07:11:48.742Z,146.25
2017-09-26T07:12:49.176Z,129.38
2017-09-26T07:13:49.607Z,157.50
2017-09-26T07:14:50.046Z,151.88
2017-09-26T07:15:50.473Z,191.25
2017-09-26T07:16:50.906Z,213.75
2017-09-26T07:17:51.339Z,202.50
2017-09-26T07:18:51.774Z,174.38
2017-09-26T07:19:52.208Z,180.00
2017-09-26T07:20:52.641Z,174.38
2017-09-26T07:21:53.073Z,196.88
2017-09-26T07:22:53.506Z,191.25
2017-09-26T07:23:53.938Z,180.00
2017-09-26T07:24:54.373Z,146.25
2017-09-26T07:25:54.805Z,135.00
2017-09-26T07:26:55.239Z,135.00
2017-09-26T07:27:55.673Z,151.88
2017-09-26T07:28:56.107Z,146.25
2017-09-26T07:29:56.539Z,157.50
2017-09-26T07:30:56.974Z,135.00
2017-09-26T07:31:57.425Z,129.38
2017-09-26T07:32:57.843Z,135.00
2017-09-26T07:33:58.280Z,146.25
2017-09-26T07:34:58.709Z,151.88
2017-09-26T07:35:59.141Z,146.25
2017-09-26T07:36:59.576Z,146.25
2017-09-26T07:38:00.012Z,135.00
2017-09-26T07:39:00.444Z,123.75
2017-09-26T07:40:00.884Z,135.00
2017-09-26T07:41:01.310Z,163.13
2017-09-26T07:42:01.753Z,202.50
2017-09-26T07:43:02.179Z,185.63
2017-09-26T07:44:02.610Z,185.63
2017-09-26T07:45:03.068Z,185.63
2017-09-26T07:46:03.478Z,196.88
2017-09-26T07:47:03.913Z,230.63
2017-09-26T07:48:04.349Z,236.25
2017-09-26T07:49:04.778Z,270.00
2017-09-26T07:50:05.213Z,258.75
2017-09-26T07:51:05.649Z,247.50
2017-09-26T07:52:06.082Z,225.00
2017-09-26T07:53:06.514Z,264.38
2017-09-26T07:54:06.948Z,258.75
2017-09-26T07:55:07.384Z,230.63
2017-09-26T07:56:07.814Z,213.75
2017-09-26T07:57:08.255Z,230.63
2017-09-26T07:58:08.680Z,213.75
2017-09-26T07:59:09.116Z,219.38
2017-09-26T08:00:09.556Z,247.50
2017-09-26T08:01:09.987Z,270.00
2017-09-26T08:02:10.420Z,270.00
2017-09-26T08:03:10.853Z,286.88
2017-09-26T08:04:11.286Z,292.50
2017-09-26T08:05:11.721Z,298.13
2017-09-26T08:06:12.154Z,303.75
2017-09-26T08:07:12.588Z,298.13
2017-09-26T08:08:13.025Z,298.13
2017-09-26T08:09:13.457Z,281.25
2017-09-26T08:10:13.893Z,298.13
2017-09-26T08:11:14.327Z,315.00
2017-09-26T08:12:14.764Z,331.88
2017-09-26T08:13:15.198Z,337.50
2017-09-26T08:14:15.631Z,343.13
2017-09-26T08:15:16.063Z,348.75
2017-09-26T08:16:16.503Z,331.88
2017-09-26T08:17:16.934Z,343.13
2017-09-26T08:18:17.371Z,365.63
2017-09-26T08:19:17.805Z,376.88
2017-09-26T08:20:18.246Z,371.25
2017-09-26T08:21:18.676Z,388.13
2017-09-26T08:22:19.119Z,376.88
2017-09-26T08:23:19.545Z,365.63
2017-09-26T08:24:19.981Z,343.13
2017-09-26T08:25:20.430Z,360.00
2017-09-26T08:26:20.851Z,376.88
2017-09-26T08:27:21.285Z,427.50
2017-09-26T08:28:21.721Z,433.13
2017-09-26T08:29:22.156Z,427.50
2017-09-26T08:30:22.595Z,461.25
2017-09-26T08:31:23.032Z,489.38
2017-09-26T08:32:23.460Z,489.38
2017-09-26T08:33:23.904Z,528.75
2017-09-26T08:34:24.333Z,523.13
2017-09-26T08:35:24.774Z,579.38
2017-09-26T08:36:25.211Z,624.38
2017-09-26T08:37:25.642Z,551.25
2017-09-26T08:38:26.081Z,568.13
2017-09-26T08:39:26.516Z,500.63
2017-09-26T08:40:26.967Z,579.38
2017-09-26T08:41:27.392Z,472.50
2017-09-26T08:42:27.829Z,444.38
2017-09-26T08:43:28.270Z,382.50
2017-09-26T08:44:28.702Z,348.75
2017-09-26T08:45:29.141Z,354.38
2017-09-26T08:46:29.580Z,331.88
2017-09-26T08:47:30.017Z,320.63
2017-09-26T08:48:30.456Z,326.25
2017-09-26T08:49:30.892Z,337.50
2017-09-26T08:50:31.341Z,326.25
2017-09-26T08:51:31.772Z,320.63
2017-09-26T08:52:32.207Z,315.00
2017-09-26T08:53:32.645Z,298.13
2017-09-26T08:54:33.124Z,320.63
2017-09-26T08:55:33.524Z,365.63
2017-09-26T08:56:33.959Z,393.75
2017-09-26T08:57:34.405Z,348.75
2017-09-26T08:58:34.841Z,326.25
2017-09-26T08:59:35.275Z,309.38
2017-09-26T09:00:35.714Z,309.38
2017-09-26T09:01:36.154Z,303.75
2017-09-26T09:02:36.586Z,303.75
2017-09-26T09:03:37.024Z,292.50
2017-09-26T09:04:37.465Z,281.25
2017-09-26T09:05:37.901Z,292.50
2017-09-26T09:06:38.339Z,275.63
2017-09-26T09:07:38.785Z,275.63
2017-09-26T09:08:39.213Z,258.75
2017-09-26T09:09:39.652Z,258.75
2017-09-26T09:10:40.090Z,258.75
2017-09-26T09:11:40.536Z,247.50
2017-09-26T09:12:40.968Z,236.25
2017-09-26T09:13:41.413Z,225.00
2017-09-26T09:14:41.835Z,219.38
2017-09-26T09:15:42.969Z,213.75
2017-09-26T09:16:42.722Z,225.00
2017-09-26T09:17:43.155Z,253.13
2017-09-26T09:18:43.607Z,247.50
2017-09-26T09:19:44.023Z,253.13
2017-09-26T09:20:44.460Z,258.75
2017-09-26T09:21:44.968Z,264.38
2017-09-26T09:22:45.333Z,270.00
2017-09-26T09:23:45.787Z,264.38
2017-09-26T09:24:46.206Z,292.50
2017-09-26T09:25:46.657Z,320.63
2017-09-26T09:26:47.080Z,326.25
2017-09-26T09:27:47.525Z,331.88
2017-09-26T09:28:47.957Z,331.88
2017-09-26T09:29:48.387Z,315.00
2017-09-26T09:30:48.825Z,354.38
2017-09-26T09:31:49.261Z,376.88
2017-09-26T09:32:49.695Z,388.13
2017-09-26T09:33:50.136Z,427.50
2017-09-26T09:34:50.567Z,438.75
2017-09-26T09:35:51.010Z,450.00
2017-09-26T09:36:51.440Z,523.13
2017-09-26T09:37:51.879Z,562.50
2017-09-26T09:38:52.329Z,540.00
2017-09-26T09:39:52.748Z,483.75
2017-09-26T09:40:53.192Z,472.50
2017-09-26T09:41:53.627Z,450.00
2017-09-26T09:42:54.065Z,450.00
2017-09-26T09:43:54.504Z,500.63
2017-09-26T09:44:54.935Z,450.00
2017-09-26T09:45:55.375Z,472.50
2017-09-26T09:46:55.808Z,551.25
2017-09-26T09:47:56.246Z,517.50
2017-09-26T09:48:56.690Z,534.38
2017-09-26T09:49:57.122Z,624.38
2017-09-26T09:50:57.559Z,596.25
2017-09-26T09:51:58.003Z,613.13
2017-09-26T09:52:58.436Z,506.25
2017-09-26T09:53:58.874Z,506.25
2017-09-26T09:54:59.310Z,556.88
2017-09-26T09:55:59.748Z,579.38
2017-09-26T09:57:00.188Z,590.63
2017-09-26T09:58:00.629Z,596.25
2017-09-26T09:59:01.069Z,506.25
2017-09-26T10:00:01.502Z,455.63
2017-09-26T10:01:01.944Z,540.00
2017-09-26T10:02:02.381Z,585.00
2017-09-26T10:03:02.817Z,658.13
2017-09-26T10:04:03.266Z,624.38
2017-09-26T10:05:03.693Z,658.13
2017-09-26T10:06:04.138Z,613.13
2017-09-26T10:07:04.570Z,562.50
2017-09-26T10:08:05.021Z,585.00
2017-09-26T10:09:05.455Z,573.75
2017-09-26T10:10:05.890Z,523.13
2017-09-26T10:11:06.382Z,466.88
2017-09-26T10:12:06.778Z,416.25
2017-09-26T10:13:07.221Z,393.75
2017-09-26T10:14:07.648Z,393.75
2017-09-26T10:15:08.104Z,388.13
2017-09-26T10:16:08.526Z,388.13
2017-09-26T10:17:08.991Z,399.38
2017-09-26T10:18:09.407Z,376.88
2017-09-26T10:19:10.017Z,461.25
2017-09-26T10:20:10.276Z,511.88
2017-09-26T10:21:10.725Z,534.38
2017-09-26T10:22:11.160Z,540.00
2017-09-26T10:23:11.601Z,556.88
2017-09-26T10:24:12.041Z,489.38
2017-09-26T10:25:12.480Z,461.25
2017-09-26T10:26:12.917Z,472.50
2017-09-26T10:27:13.352Z,534.38
2017-09-26T10:28:13.799Z,540.00
2017-09-26T10:29:14.233Z,630.00
2017-09-26T10:30:14.667Z,613.13
2017-09-26T10:31:15.111Z,601.88
2017-09-26T10:32:15.543Z,652.50
2017-09-26T10:33:15.985Z,956.25
2017-09-26T10:34:16.424Z,596.25
2017-09-26T10:35:16.868Z,585.00
2017-09-26T10:36:17.315Z,517.50
2017-09-26T10:37:17.741Z,506.25
2017-09-26T10:38:18.176Z,624.38
2017-09-26T10:39:18.615Z,405.00
2017-09-26T10:40:19.054Z,388.13
2017-09-26T10:41:19.499Z,416.25
2017-09-26T10:42:19.948Z,495.00
2017-09-26T10:43:20.377Z,585.00
2017-09-26T10:44:20.812Z,405.00
2017-09-26T10:45:21.250Z,388.13
2017-09-26T10:46:21.691Z,781.88
2017-09-26T10:47:22.133Z,495.00
2017-09-26T10:48:22.570Z,388.13
2017-09-26T10:49:23.010Z,382.50
2017-09-26T10:50:23.450Z,382.50
2017-09-26T10:51:23.899Z,365.63
2017-09-26T10:52:24.329Z,388.13
2017-09-26T10:53:24.777Z,506.25
2017-09-26T10:54:25.210Z,478.13
2017-09-26T10:55:25.651Z,483.75
2017-09-26T10:56:26.094Z,517.50
2017-09-26T10:57:26.532Z,466.88
2017-09-26T10:58:26.996Z,596.25
2017-09-26T10:59:27.409Z,596.25
2017-09-26T11:00:27.846Z,652.50
2017-09-26T11:01:28.292Z,461.25
2017-09-26T11:02:28.731Z,399.38
2017-09-26T11:03:29.170Z,354.38
2017-09-26T11:04:29.623Z,393.75
2017-09-26T11:05:30.051Z,416.25
2017-09-26T11:06:30.501Z,478.13
2017-09-26T11:07:30.930Z,528.75
2017-09-26T11:08:31.370Z,601.88
2017-09-26T11:09:31.810Z,388.13
2017-09-26T11:10:32.255Z,360.00
2017-09-26T11:11:32.700Z,331.88
2017-09-26T11:12:33.135Z,331.88
2017-09-26T11:13:33.573Z,315.00
2017-09-26T11:14:34.027Z,365.63
2017-09-26T11:15:34.449Z,360.00
2017-09-26T11:16:34.888Z,337.50
2017-09-26T11:17:35.328Z,348.75
2017-09-26T11:18:35.767Z,348.75
2017-09-26T11:19:36.204Z,365.63
2017-09-26T11:20:36.639Z,365.63
2017-09-26T11:21:37.079Z,466.88
2017-09-26T11:22:37.515Z,579.38
2017-09-26T11:23:37.957Z,562.50
2017-09-26T11:24:38.420Z,562.50
2017-09-26T11:25:38.834Z,511.88
2017-09-26T11:26:39.274Z,495.00
2017-09-26T11:27:39.712Z,478.13
2017-09-26T11:28:40.156Z,444.38
2017-09-26T11:29:40.586Z,461.25
2017-09-26T11:30:41.028Z,427.50
2017-09-26T11:31:41.463Z,388.13
2017-09-26T11:32:41.902Z,382.50
2017-09-26T11:33:42.341Z,410.63
2017-09-26T11:34:42.791Z,421.88
2017-09-26T11:35:43.211Z,399.38
2017-09-26T11:36:43.657Z,365.63
2017-09-26T11:37:44.104Z,388.13
2017-09-26T11:38:44.530Z,416.25
2017-09-26T11:39:44.970Z,393.75
2017-09-26T11:40:45.407Z,382.50
2017-09-26T11:41:45.841Z,343.13
2017-09-26T11:42:46.288Z,320.63
2017-09-26T11:43:46.744Z,292.50
2017-09-26T11:44:47.160Z,309.38
2017-09-26T11:45:47.597Z,320.63
2017-09-26T11:46:48.039Z,343.13
2017-09-26T11:47:48.469Z,298.13
2017-09-26T11:48:48.914Z,236.25
2017-09-26T11:49:49.388Z,219.38
2017-09-26T11:50:49.797Z,241.88
2017-09-26T11:51:50.228Z,236.25
2017-09-26T11:52:50.662Z,219.38
2017-09-26T11:53:51.101Z,225.00
2017-09-26T11:54:51.537Z,264.38
2017-09-26T11:55:51.984Z,292.50
2017-09-26T11:56:52.427Z,292.50
2017-09-26T11:57:52.865Z,326.25
2017-09-26T11:58:53.293Z,360.00
2017-09-26T11:59:53.725Z,399.38
2017-09-26T12:00:54.178Z,405.00
2017-09-26T12:01:54.619Z,416.25
2017-09-26T12:02:55.092Z,416.25
2017-09-26T12:03:55.490Z,421.88
2017-09-26T12:04:55.918Z,393.75
2017-09-26T12:05:56.379Z,393.75
2017-09-26T12:06:56.816Z,393.75
2017-09-26T12:07:57.233Z,371.25
2017-09-26T12:08:57.674Z,343.13
2017-09-26T12:09:58.138Z,365.63
2017-09-26T12:10:58.769Z,405.00
2017-09-26T12:11:59.304Z,444.38
2017-09-26T12:12:59.463Z,433.13
2017-09-26T12:13:59.870Z,405.00
2017-09-26T12:15:01.392Z,399.38
2017-09-26T12:16:01.634Z,382.50
2017-09-26T12:17:02.314Z,405.00
2017-09-26T12:18:01.682Z,427.50
2017-09-26T12:19:02.318Z,433.13
2017-09-26T12:20:02.646Z,421.88
2017-09-26T12:21:03.152Z,438.75
2017-09-26T12:22:03.771Z,455.63
2017-09-26T12:23:04.022Z,478.13
2017-09-26T12:24:04.829Z,511.88
2017-09-26T12:25:04.927Z,528.75
2017-09-26T12:26:05.245Z,523.13
2017-09-26T12:27:05.732Z,556.88
2017-09-26T12:28:06.042Z,573.75
2017-09-26T12:29:06.457Z,596.25
2017-09-26T12:30:06.903Z,596.25
2017-09-26T12:31:07.352Z,618.75
2017-09-26T12:32:07.794Z,635.63
2017-09-26T12:33:08.226Z,646.88
2017-09-26T12:34:08.686Z,635.63
2017-09-26T12:35:09.104Z,641.25
2017-09-26T12:36:09.556Z,641.25
2017-09-26T12:37:10.006Z,652.50
2017-09-26T12:38:10.520Z,590.63
2017-09-26T12:39:10.874Z,596.25
2017-09-26T12:40:11.320Z,579.38
2017-09-26T12:41:11.764Z,585.00
2017-09-26T12:42:12.191Z,613.13
2017-09-26T12:43:12.632Z,607.50
2017-09-26T12:44:13.087Z,568.13
2017-09-26T12:45:13.509Z,568.13
2017-09-26T12:46:13.956Z,545.63
2017-09-26T12:47:14.391Z,568.13
2017-09-26T12:48:14.836Z,579.38
2017-09-26T12:49:15.277Z,545.63
2017-09-26T12:50:15.764Z,523.13
2017-09-26T12:51:16.165Z,466.88
2017-09-26T12:52:16.597Z,444.38
2017-09-26T12:53:17.037Z,450.00
2017-09-26T12:54:17.503Z,450.00
2017-09-26T12:55:17.921Z,433.13
2017-09-26T12:56:18.423Z,427.50